Date,TemperatureHighF,TemperatureAvgF,TemperatureLowF,DewpointHighF,DewpointAvgF,DewpointLowF,HumidityHigh,HumidityAvg,HumidityLow,PressureMaxIn,PressureMinIn,WindSpeedMaxMPH,WindSpeedAvgMPH,GustSpeedMaxMPH,PrecipitationSumIn
2014-1-1,31.2,22.4,25.7,19.0,-10.8,-99.9,68,43,47,30.35,30.15,12,-218,19,0.00
2014-1-2,33.8,3.6,29.7,33.0,-85.5,-99.9,100,9,59,30.29,29.58,23,-882,28,0.00
2014-1-3,21.9,9.4,9.0,20.0,-30.6,-99.9,93,50,65,30.36,29.42,31,-354,37,0.00
2014-1-4,39.6,21.3,6.5,35.0,-7.1,-99.9,89,60,71,30.49,30.25,10,-239,16,0.00
2014-1-5,44.9,21.0,-90.0,44.0,-15.0,-99.9,97,55,1,30.31,29.91,10,-342,13,0.00
2014-1-6,53.9,11.8,47.2,54.0,-65.3,-99.9,99,23,98,29.89,29.33,18,-768,24,0.00
2014-1-7,17.3,9.8,12.1,3.0,-32.1,-99.9,59,37,47,30.25,29.50,18,-321,30,0.00
2014-1-8,23.8,14.8,11.1,18.0,-16.6,-99.9,80,52,57,30.45,30.25,11,-245,16,0.00
2014-1-9,28.6,17.3,18.3,15.0,-17.9,-99.9,75,46,53,30.62,30.41,15,-269,18,0.00
2014-1-10,41.1,11.6,20.6,39.0,-55.8,-99.9,94,29,73,30.58,30.24,7,-662,13,0.01
2014-1-11,53.3,12.2,45.0,53.0,-63.7,-99.9,99,24,96,30.24,29.32,18,-755,24,0.08
2014-1-12,47.3,27.3,36.8,43.0,-15.3,-99.9,97,43,57,29.95,29.32,21,-353,27,0.00
2014-1-13,47.0,33.7,34.1,46.0,8.4,-99.9,95,67,74,30.13,29.93,11,-221,16,0.00
2014-1-14,51.0,9.8,47.4,50.0,-70.3,-99.9,98,19,94,29.93,29.54,10,-798,17,0.07
2014-1-15,47.7,28.8,37.8,42.0,-3.9,-99.9,98,63,75,30.00,29.73,7,-311,8,0.00
2014-1-16,42.0,12.8,37.6,41.0,-55.7,-99.9,98,31,97,29.89,29.79,8,-682,11,0.00
2014-1-17,42.7,25.0,34.5,40.0,-12.6,-99.9,99,57,81,29.97,29.88,8,-357,11,0.00
2014-1-18,43.3,18.8,34.3,42.0,-32.8,-99.9,98,47,89,29.89,29.53,18,-508,23,0.01
2014-1-19,39.2,21.9,33.9,32.0,-22.3,-99.9,81,45,67,29.71,29.58,27,-396,27,0.00
2014-1-20,45.8,29.4,35.7,37.0,-5.1,-99.9,77,50,63,29.80,29.50,12,-275,21,0.00
2014-1-21,27.5,15.5,20.4,25.0,-22.7,-99.9,95,54,58,29.99,29.66,27,-342,32,0.00
2014-1-22,22.1,7.8,15.8,21.0,-51.4,-99.9,94,34,58,29.83,29.47,29,-561,38,0.00
2014-1-23,23.4,12.0,10.6,12.0,-29.5,-99.9,73,39,51,30.15,29.83,13,-329,24,0.00
2014-1-24,21.9,12.2,11.3,15.0,-17.4,-99.9,79,49,49,30.22,30.07,15,-204,23,0.00
2014-1-25,42.4,26.1,21.0,36.0,-6.1,-99.9,95,58,70,30.06,29.32,20,-279,29,0.04
2014-1-26,37.0,15.8,19.7,32.0,-25.6,-99.9,83,42,47,29.88,29.34,18,-340,24,0.04
2014-1-27,49.0,28.5,26.4,44.0,-5.4,-99.9,92,53,37,29.94,29.55,17,-272,23,0.00
2014-1-28,26.1,13.1,16.7,8.0,-33.0,-99.9,53,28,35,30.28,29.93,13,-323,25,0.00
2014-1-29,25.1,14.4,18.2,18.0,-25.8,-99.9,92,45,48,30.18,29.97,9,-338,16,0.00
2014-1-30,33.0,20.5,14.5,27.0,-8.0,-99.9,81,52,45,30.41,30.20,13,-195,18,0.00
2014-1-31,38.1,27.0,33.2,32.0,-3.4,-99.9,87,57,64,30.18,30.01,8,-251,15,0.00